Time;durP1;ratioP1;P1;durP2;ratioP2;P2;SDS_P1;SDS_P2;PMS_P1;PMS_P2;Temp;Humidity;BMP_temperature;BMP_pressure;BME280_temperature;BME280_humidity;BME280_pressure;Samples;Min_cycle;Max_cycle;Signal;HPM_P1;HPM_P2
2021/11/11 00:00:29;;;;;;;14.77;9.80;;;1.90;65.50;;;;;;5034119;28;20026;-67
2021/11/11 00:02:59;;;;;;;15.07;8.98;;;1.90;65.50;;;;;;5026569;28;20032;-69
2021/11/11 00:05:27;;;;;;;16.75;9.57;;;1.90;65.50;;;;;;5033195;28;20391;-68
2021/11/11 00:07:53;;;;;;;15.57;9.85;;;1.90;66.20;;;;;;5033780;28;20053;-67
2021/11/11 00:10:23;;;;;;;14.20;8.98;;;1.80;65.60;;;;;;5030652;28;20080;-69
2021/11/11 00:12:51;;;;;;;14.80;9.73;;;1.80;66.00;;;;;;5020514;28;20023;-69
2021/11/11 00:15:18;;;;;;;15.18;9.30;;;1.80;66.20;;;;;;5034346;28;20083;-67
2021/11/11 00:17:44;;;;;;;12.57;9.10;;;1.70;66.40;;;;;;5017927;28;20029;-68
2021/11/11 00:20:12;;;;;;;11.77;8.60;;;1.70;66.50;;;;;;5023365;28;20036;-69
2021/11/11 00:22:39;;;;;;;15.27;8.57;;;1.70;66.50;;;;;;5033478;28;20033;-68
2021/11/11 00:25:06;;;;;;;13.20;8.07;;;1.70;66.50;;;;;;5019457;28;20112;-68
2021/11/11 00:27:33;;;;;;;15.18;8.38;;;1.70;66.50;;;;;;5036101;28;20033;-70
2021/11/11 00:29:59;;;;;;;13.07;8.85;;;1.70;66.50;;;;;;5015507;28;20022;-69
2021/11/11 00:32:25;;;;;;;13.18;8.77;;;1.70;66.50;;;;;;5025279;28;20032;-70
2021/11/11 00:34:54;;;;;;;13.32;8.27;;;1.70;66.50;;;;;;5030030;28;20398;-69
2021/11/11 00:37:21;;;;;;;12.13;8.05;;;1.70;66.50;;;;;;5027705;28;20355;-69
2021/11/11 00:39:47;;;;;;;12.77;8.98;;;1.70;66.70;;;;;;5035334;28;20021;-67
2021/11/11 00:42:14;;;;;;;14.63;8.43;;;1.70;66.90;;;;;;5052585;28;20013;-69
2021/11/11 00:44:40;;;;;;;11.73;8.40;;;1.70;67.10;;;;;;5025764;28;20145;-70
2021/11/11 00:47:06;;;;;;;12.90;8.60;;;1.60;67.10;;;;;;5015959;28;20523;-69
2021/11/11 00:49:32;;;;;;;13.30;8.93;;;1.60;67.10;;;;;;5025678;28;20071;-72
2021/11/11 00:51:58;;;;;;;15.45;9.00;;;1.70;67.30;;;;;;5023721;28;20024;-68
2021/11/11 00:54:24;;;;;;;13.68;9.23;;;1.60;67.30;;;;;;5025593;28;20025;-68
2021/11/11 00:56:49;;;;;;;15.05;9.60;;;1.60;67.50;;;;;;5025668;28;20026;-70
2021/11/11 00:59:15;;;;;;;15.88;9.43;;;1.60;67.50;;;;;;5029419;28;20454;-68
2021/11/11 01:01:41;;;;;;;15.27;9.95;;;1.50;67.50;;;;;;5014469;28;20128;-68
2021/11/11 01:04:07;;;;;;;15.60;9.85;;;1.50;67.70;;;;;;5013436;28;20119;-70
2021/11/11 01:06:33;;;;;;;16.38;10.10;;;1.50;68.00;;;;;;5030637;28;20029;-70
2021/11/11 01:08:58;;;;;;;16.33;10.00;;;1.50;68.20;;;;;;5025924;28;20097;-71
2021/11/11 01:11:27;;;;;;;17.30;10.32;;;1.40;68.30;;;;;;5023299;28;20017;-69
2021/11/11 01:13:53;;;;;;;17.63;9.80;;;1.40;68.40;;;;;;5021734;28;20399;-70
2021/11/11 01:16:19;;;;;;;13.95;9.93;;;1.40;68.30;;;;;;5015885;28;20074;-68
2021/11/11 01:18:46;;;;;;;14.23;9.27;;;1.40;68.20;;;;;;5020074;28;20105;-69
2021/11/11 01:21:13;;;;;;;12.75;9.20;;;1.40;68.40;;;;;;5022295;28;20025;-67
2021/11/11 01:23:39;;;;;;;12.93;8.23;;;1.40;68.50;;;;;;5015708;28;20032;-66
2021/11/11 01:26:04;;;;;;;11.15;8.45;;;1.40;68.40;;;;;;5015502;28;20067;-68
2021/11/11 01:28:31;;;;;;;11.90;8.68;;;1.40;68.50;;;;;;5053287;28;20474;-68
2021/11/11 01:30:57;;;;;;;11.80;8.18;;;1.40;68.50;;;;;;5028624;28;20018;-68
2021/11/11 01:33:22;;;;;;;12.02;7.95;;;1.40;68.50;;;;;;5012479;28;20026;-68
2021/11/11 01:35:48;;;;;;;11.60;7.60;;;1.50;68.40;;;;;;5022762;28;20112;-68
2021/11/11 01:38:14;;;;;;;11.52;7.72;;;1.50;68.40;;;;;;5012682;28;20034;-68
2021/11/11 01:40:40;;;;;;;11.13;7.68;;;1.50;68.40;;;;;;5016255;28;20025;-70
2021/11/11 01:43:07;;;;;;;12.02;8.13;;;1.50;68.40;;;;;;5031391;28;20418;-68
2021/11/11 01:45:37;;;;;;;12.18;8.10;;;1.50;68.30;;;;;;5020547;28;20456;-67
2021/11/11 01:48:04;;;;;;;12.40;7.93;;;1.50;68.30;;;;;;5019113;28;20026;-69
2021/11/11 01:50:31;;;;;;;10.88;7.82;;;1.60;68.20;;;;;;5016850;28;20360;-69
2021/11/11 01:52:58;;;;;;;11.95;8.10;;;1.50;68.10;;;;;;5012360;28;20025;-69
2021/11/11 01:55:24;;;;;;;12.07;8.02;;;1.60;68.20;;;;;;5014359;28;20010;-68
2021/11/11 01:57:51;;;;;;;11.57;7.63;;;1.50;68.20;;;;;;5018731;28;20075;-68
2021/11/11 02:00:29;;;;;;;12.13;8.23;;;1.50;68.20;;;;;;5018777;28;20037;-69
2021/11/11 02:03:01;;;;;;;12.20;7.90;;;1.60;68.30;;;;;;5012330;28;20030;-69
2021/11/11 02:05:28;;;;;;;11.85;7.57;;;1.50;68.40;;;;;;5013190;28;20033;-68
2021/11/11 02:07:54;;;;;;;9.90;7.32;;;1.50;68.40;;;;;;5023720;28;20060;-69
2021/11/11 02:10:21;;;;;;;12.68;7.78;;;1.50;68.50;;;;;;5024921;28;20129;-69
2021/11/11 02:12:49;;;;;;;10.35;6.90;;;1.50;68.60;;;;;;5015621;28;20025;-69
2021/11/11 02:15:16;;;;;;;10.98;7.68;;;1.50;68.70;;;;;;5026106;28;20032;-68
2021/11/11 02:17:43;;;;;;;11.25;7.35;;;1.50;68.90;;;;;;5018970;28;20030;-68
2021/11/11 02:20:16;;;;;;;11.00;6.80;;;1.50;68.90;;;;;;5026262;28;20076;-68
2021/11/11 02:22:44;;;;;;;12.00;6.97;;;1.50;69.10;;;;;;5022040;28;20022;-69
2021/11/11 02:25:12;;;;;;;8.95;6.47;;;1.50;69.10;;;;;;5020079;28;20108;-69
2021/11/11 02:27:39;;;;;;;12.63;7.53;;;1.50;69.20;;;;;;5037155;28;20030;-71
2021/11/11 02:30:06;;;;;;;9.35;6.97;;;1.40;69.30;;;;;;5027025;28;20022;-69
2021/11/11 02:32:33;;;;;;;13.73;6.05;;;1.40;69.50;;;;;;5024596;28;20026;-70
2021/11/11 02:35:00;;;;;;;11.13;6.13;;;1.40;69.80;;;;;;5033836;28;20053;-68
2021/11/11 02:37:31;;;;;;;13.90;6.43;;;1.30;70.10;;;;;;5024923;28;20043;-68
2021/11/11 02:39:58;;;;;;;15.65;7.85;;;1.40;70.50;;;;;;5022233;28;20021;-68
2021/11/11 02:42:25;;;;;;;21.27;12.07;;;1.40;70.70;;;;;;5025979;28;20026;-68
2021/11/11 02:44:54;;;;;;;18.33;10.77;;;1.50;70.70;;;;;;5024157;28;20022;-68
2021/11/11 02:47:19;;;;;;;15.02;8.20;;;1.50;70.70;;;;;;5018856;28;20032;-68
2021/11/11 02:49:45;;;;;;;11.13;6.75;;;1.50;70.60;;;;;;5021872;28;20456;-68
2021/11/11 02:52:11;;;;;;;8.68;6.00;;;1.60;70.70;;;;;;5020809;28;20052;-68
2021/11/11 02:54:39;;;;;;;7.30;4.70;;;1.60;70.60;;;;;;5019791;28;20057;-69
2021/11/11 02:57:29;;;;;;;6.93;4.38;;;1.60;70.60;;;;;;5017274;28;20030;-68
2021/11/11 02:59:59;;;;;;;7.60;4.68;;;1.60;70.60;;;;;;5025327;28;20355;-68
2021/11/11 03:02:28;;;;;;;7.53;5.00;;;1.60;70.60;;;;;;5021283;28;20049;-68
2021/11/11 03:04:54;;;;;;;5.72;3.88;;;1.50;70.60;;;;;;5033486;28;20158;-69
2021/11/11 03:07:20;;;;;;;6.63;4.35;;;1.50;70.70;;;;;;5030142;28;20042;-68
2021/11/11 03:09:47;;;;;;;7.60;4.75;;;1.50;70.80;;;;;;5037930;28;20075;-68
2021/11/11 03:12:13;;;;;;;5.80;4.28;;;1.50;70.90;;;;;;5027163;28;20468;-68
2021/11/11 03:14:40;;;;;;;5.25;3.97;;;1.50;70.90;;;;;;5016263;28;20022;-72
2021/11/11 03:17:07;;;;;;;5.35;3.88;;;1.50;70.90;;;;;;5030818;28;20041;-67
2021/11/11 03:19:33;;;;;;;7.75;4.30;;;1.50;71.50;;;;;;5019077;28;20100;-69
2021/11/11 03:22:02;;;;;;;6.90;4.07;;;1.50;70.90;;;;;;5020629;28;20393;-68
2021/11/11 03:24:28;;;;;;;4.93;3.80;;;1.50;70.90;;;;;;5017417;28;20022;-69
2021/11/11 03:26:54;;;;;;;6.13;3.90;;;1.50;71.00;;;;;;5020859;28;20034;-68
2021/11/11 03:29:19;;;;;;;6.18;4.03;;;1.50;71.10;;;;;;5018577;28;20473;-68
2021/11/11 03:31:45;;;;;;;6.93;4.05;;;1.50;71.00;;;;;;5022225;28;20368;-69
2021/11/11 03:34:11;;;;;;;5.63;3.80;;;1.50;71.10;;;;;;5020014;28;20022;-68
2021/11/11 03:36:36;;;;;;;8.40;4.10;;;1.50;71.20;;;;;;5018903;28;20495;-68
2021/11/11 03:39:04;;;;;;;6.22;3.97;;;1.50;71.20;;;;;;5048397;28;20174;-67
2021/11/11 03:41:30;;;;;;;5.18;3.75;;;1.50;71.20;;;;;;5027654;28;20025;-68
2021/11/11 03:43:56;;;;;;;6.53;4.18;;;1.50;71.20;;;;;;5024598;28;20092;-68
2021/11/11 03:46:22;;;;;;;5.68;4.18;;;1.50;71.20;;;;;;5024291;28;20034;-68
2021/11/11 03:48:48;;;;;;;6.22;3.75;;;1.40;71.20;;;;;;5016705;28;20021;-69
2021/11/11 03:51:14;;;;;;;6.22;3.63;;;1.40;71.10;;;;;;5024186;28;20029;-69
2021/11/11 03:53:40;;;;;;;5.50;3.80;;;1.40;71.30;;;;;;5049038;28;20096;-69
2021/11/11 03:56:06;;;;;;;5.38;3.63;;;1.30;71.30;;;;;;5015826;28;20056;-69
2021/11/11 03:58:31;;;;;;;7.32;4.43;;;1.30;71.50;;;;;;5018219;28;20437;-68
2021/11/11 04:00:57;;;;;;;6.85;3.88;;;1.30;71.60;;;;;;5015425;28;20117;-69
2021/11/11 04:03:23;;;;;;;6.18;3.97;;;1.30;71.50;;;;;;5022851;28;20079;-70
2021/11/11 04:05:48;;;;;;;5.25;3.80;;;1.30;71.70;;;;;;5021399;28;20056;-67
2021/11/11 04:08:14;;;;;;;5.63;3.78;;;1.30;71.80;;;;;;5018499;28;20053;-67
2021/11/11 04:10:39;;;;;;;5.47;3.78;;;1.30;71.70;;;;;;5031852;28;20022;-68
2021/11/11 04:13:06;;;;;;;6.30;4.20;;;1.30;71.70;;;;;;5025166;28;20057;-69
2021/11/11 04:15:32;;;;;;;6.07;4.00;;;1.30;71.70;;;;;;5022770;28;20090;-68
2021/11/11 04:17:58;;;;;;;5.47;3.97;;;1.30;71.60;;;;;;5019166;28;20052;-70
2021/11/11 04:20:25;;;;;;;6.18;4.15;;;1.30;71.50;;;;;;5029593;28;20456;-69
2021/11/11 04:22:52;;;;;;;6.13;4.13;;;1.30;71.60;;;;;;5013807;28;20022;-68
2021/11/11 04:26:08;;;;;;;8.07;4.13;;;1.30;71.50;;;;;;5028638;28;20030;-68
2021/11/11 04:28:08;;;;;;;5.97;4.30;;;1.30;71.50;;;;;;5028037;28;20057;-68
2021/11/11 04:30:35;;;;;;;7.13;4.25;;;1.30;71.50;;;;;;5019313;28;20485;-68
2021/11/11 04:33:02;;;;;;;6.80;4.53;;;1.20;71.60;;;;;;5025308;28;20026;-68
2021/11/11 04:35:28;;;;;;;6.80;4.15;;;1.20;71.70;;;;;;5024308;28;20088;-68
2021/11/11 04:59:35;;;;;;;7.00;4.00;;;1.10;73.10;;;;;;5036710;28;20479;-70
2021/11/11 05:04:45;;;;;;;5.88;3.78;;;1.20;73.30;;;;;;5023142;28;20476;-69
2021/11/11 05:07:11;;;;;;;7.90;3.80;;;1.40;73.40;;;;;;5021429;28;20038;-68
2021/11/11 05:09:37;;;;;;;9.48;6.07;;;1.60;73.00;;;;;;5024352;28;20052;-69
2021/11/11 05:12:03;;;;;;;7.22;5.38;;;1.90;72.60;;;;;;5020658;28;20022;-76
2021/11/11 05:14:29;;;;;;;6.80;4.70;;;2.20;71.80;;;;;;5025568;28;20029;-71
2021/11/11 05:16:54;;;;;;;9.25;5.20;;;2.50;71.10;;;;;;5030753;28;20036;-72
2021/11/11 05:19:20;;;;;;;7.57;4.00;;;2.80;70.00;;;;;;5022559;28;20033;-71
2021/11/11 05:21:45;;;;;;;6.47;3.65;;;3.10;69.30;;;;;;5025241;28;20341;-74
2021/11/11 05:24:11;;;;;;;5.13;3.42;;;3.30;68.40;;;;;;5025807;28;20057;-74
2021/11/11 05:26:39;;;;;;;6.55;3.85;;;3.60;67.70;;;;;;5022955;28;20119;-80
2021/11/11 05:29:05;;;;;;;5.55;3.70;;;3.80;66.30;;;;;;5029657;28;20040;-75
2021/11/11 05:31:31;;;;;;;5.25;3.05;;;4.10;66.00;;;;;;5025939;28;20017;-74
2021/11/11 05:33:57;;;;;;;5.35;3.33;;;4.40;65.00;;;;;;5024225;28;20029;-75
2021/11/11 05:36:23;;;;;;;7.78;3.30;;;4.70;64.40;;;;;;5030475;28;20041;-71
2021/11/11 05:38:48;;;;;;;4.93;2.90;;;4.90;63.70;;;;;;5026506;28;20033;-71
2021/11/11 05:41:14;;;;;;;5.57;3.47;;;5.20;62.50;;;;;;5024934;28;20433;-71
2021/11/11 05:43:40;;;;;;;4.90;3.25;;;5.30;61.70;;;;;;5026697;28;20064;-76
2021/11/11 05:46:06;;;;;;;4.35;2.70;;;5.50;61.90;;;;;;5030223;28;20025;-71
2021/11/11 05:48:31;;;;;;;6.32;3.88;;;5.80;61.20;;;;;;5026525;28;20121;-69
2021/11/11 05:50:57;;;;;;;5.07;3.08;;;6.00;60.00;;;;;;5030101;28;20028;-69
2021/11/11 05:53:23;;;;;;;6.25;2.92;;;6.20;59.30;;;;;;5037099;28;20021;-70
2021/11/11 05:55:49;;;;;;;5.13;2.83;;;6.40;59.40;;;;;;5026838;28;20013;-70
2021/11/11 05:58:15;;;;;;;4.78;2.95;;;6.50;58.50;;;;;;5026237;28;20080;-72
2021/11/11 06:00:41;;;;;;;6.47;2.95;;;6.70;58.60;;;;;;5030748;28;20021;-71
2021/11/11 06:03:06;;;;;;;5.88;3.42;;;6.90;57.70;;;;;;5027338;28;20021;-71
2021/11/11 06:05:32;;;;;;;6.00;3.30;;;7.10;57.30;;;;;;5012408;28;20033;-69
2021/11/11 06:07:58;;;;;;;4.47;3.00;;;7.20;56.90;;;;;;5013751;28;20030;-71
2021/11/11 06:10:24;;;;;;;4.55;3.10;;;7.40;56.80;;;;;;5045089;28;20471;-73
2021/11/11 06:12:50;;;;;;;8.73;3.20;;;7.70;55.70;;;;;;5013444;28;20426;-71
2021/11/11 06:15:15;;;;;;;6.07;3.60;;;7.70;55.40;;;;;;5045489;28;20021;-70
2021/11/11 06:17:43;;;;;;;7.40;3.78;;;8.00;55.50;;;;;;5045314;28;20060;-72
2021/11/11 06:20:15;;;;;;;7.65;4.18;;;8.10;54.50;;;;;;5013464;28;20026;-71
2021/11/11 06:22:43;;;;;;;5.43;3.33;;;8.20;54.40;;;;;;5013262;28;20018;-70
2021/11/11 06:25:09;;;;;;;8.05;4.20;;;8.50;53.60;;;;;;5013333;28;20030;-71
2021/11/11 06:27:35;;;;;;;6.07;3.78;;;8.60;52.80;;;;;;5013044;28;20376;-71
2021/11/11 06:30:01;;;;;;;7.20;4.28;;;8.60;52.90;;;;;;5012283;28;20091;-71
2021/11/11 06:32:27;;;;;;;13.13;5.28;;;8.70;53.00;;;;;;5013205;28;20463;-71
2021/11/11 06:34:52;;;;;;;6.60;4.65;;;9.00;53.20;;;;;;5044701;28;20045;-70
2021/11/11 06:37:18;;;;;;;9.77;5.63;;;9.30;52.40;;;;;;5013617;28;20104;-72
2021/11/11 06:39:44;;;;;;;7.97;4.85;;;9.40;51.20;;;;;;5048702;28;20021;-71
2021/11/11 06:42:09;;;;;;;6.25;3.50;;;9.70;51.40;;;;;;5017773;28;20093;-72
2021/11/11 06:44:35;;;;;;;7.05;4.90;;;9.70;50.00;;;;;;5019348;28;20128;-72
2021/11/11 06:47:01;;;;;;;5.00;2.80;;;10.00;49.80;;;;;;5022669;28;20112;-71
2021/11/11 06:49:27;;;;;;;4.63;3.03;;;10.20;49.50;;;;;;5020459;28;20034;-70
2021/11/11 06:51:52;;;;;;;12.23;6.35;;;10.10;48.70;;;;;;5016174;28;20105;-71
2021/11/11 06:54:18;;;;;;;6.80;3.30;;;9.90;48.50;;;;;;5017388;28;20030;-70
2021/11/11 06:56:44;;;;;;;5.35;3.45;;;10.00;48.60;;;;;;5048531;28;20058;-71
2021/11/11 06:59:09;;;;;;;4.18;2.80;;;10.10;48.20;;;;;;5025330;28;20029;-70
2021/11/11 07:01:35;;;;;;;5.53;3.20;;;10.20;48.30;;;;;;5021530;28;20056;-71
2021/11/11 07:04:01;;;;;;;5.25;2.30;;;10.30;47.70;;;;;;5029343;28;20030;-70
2021/11/11 07:06:27;;;;;;;4.03;2.58;;;10.40;47.20;;;;;;5017213;28;20026;-71
2021/11/11 07:08:53;;;;;;;4.80;2.50;;;10.30;46.70;;;;;;5016363;28;20575;-70
2021/11/11 07:11:19;;;;;;;4.13;2.67;;;10.40;47.50;;;;;;5016981;28;20101;-72
2021/11/11 07:13:44;;;;;;;6.72;3.70;;;10.60;46.60;;;;;;5017076;28;20033;-71
2021/11/11 07:16:10;;;;;;;6.90;3.10;;;10.50;45.80;;;;;;5015505;28;20107;-70
2021/11/11 07:18:35;;;;;;;10.70;5.20;;;10.40;45.40;;;;;;5016851;28;20056;-70
2021/11/11 07:21:01;;;;;;;5.22;2.75;;;10.50;45.30;;;;;;5016226;28;20029;-72
2021/11/11 07:23:28;;;;;;;3.97;2.50;;;10.50;44.80;;;;;;5048362;28;20494;-71
2021/11/11 07:25:55;;;;;;;4.10;2.70;;;10.60;44.70;;;;;;5015286;28;20022;-71
2021/11/11 07:28:21;;;;;;;4.88;3.42;;;10.70;44.80;;;;;;5015361;28;20029;-71
2021/11/11 07:30:47;;;;;;;4.40;2.55;;;10.70;44.90;;;;;;5016177;28;20411;-70
2021/11/11 07:33:14;;;;;;;5.40;2.83;;;10.70;44.80;;;;;;5014625;28;20060;-70
2021/11/11 07:35:42;;;;;;;3.83;2.63;;;10.70;44.80;;;;;;5014855;28;20026;-71
2021/11/11 07:38:09;;;;;;;5.60;3.88;;;10.50;45.10;;;;;;5014545;28;20526;-71
2021/11/11 07:40:36;;;;;;;5.03;2.83;;;10.70;45.30;;;;;;5016157;28;20049;-71
2021/11/11 07:43:03;;;;;;;6.10;2.70;;;10.90;45.30;;;;;;5018333;28;20129;-71
2021/11/11 07:45:29;;;;;;;6.20;4.20;;;10.80;45.00;;;;;;5050043;28;20018;-71
2021/11/11 07:48:01;;;;;;;4.75;2.85;;;10.70;45.20;;;;;;5015003;28;20400;-71
2021/11/11 07:50:27;;;;;;;5.70;3.17;;;11.00;45.40;;;;;;5047625;28;20029;-71
2021/11/11 07:52:56;;;;;;;4.97;3.10;;;11.20;45.20;;;;;;5015854;28;20049;-71
2021/11/11 07:55:22;;;;;;;12.65;3.40;;;11.30;45.20;;;;;;5048135;28;20025;-69
2021/11/11 07:57:47;;;;;;;6.85;3.15;;;11.50;45.20;;;;;;5014824;28;20029;-70
2021/11/11 08:00:15;;;;;;;4.63;2.50;;;11.80;45.40;;;;;;5016017;28;20020;-71
2021/11/11 08:02:42;;;;;;;4.70;2.42;;;12.00;44.50;;;;;;5015740;28;20100;-71
2021/11/11 08:05:10;;;;;;;5.95;2.83;;;12.00;43.80;;;;;;5014630;28;20030;-71
2021/11/11 08:07:36;;;;;;;3.85;2.38;;;12.00;44.50;;;;;;5014437;28;20488;-72
2021/11/11 08:10:04;;;;;;;4.25;2.25;;;12.10;44.10;;;;;;5015984;28;20089;-71
2021/11/11 08:12:30;;;;;;;5.43;2.25;;;12.10;44.00;;;;;;5015675;28;20029;-69
2021/11/11 08:14:57;;;;;;;5.95;3.42;;;12.10;43.80;;;;;;5015868;28;20024;-69
2021/11/11 08:17:23;;;;;;;4.40;2.50;;;12.00;44.10;;;;;;5014350;28;20026;-71
2021/11/11 08:19:54;;;;;;;3.83;2.25;;;12.20;44.20;;;;;;5014264;28;20531;-70
2021/11/11 08:22:21;;;;;;;4.78;2.60;;;12.30;44.00;;;;;;5015624;28;20096;-70
2021/11/11 08:24:46;;;;;;;4.82;2.67;;;12.30;43.90;;;;;;5014160;28;20049;-72
2021/11/11 08:27:14;;;;;;;5.25;2.78;;;12.30;44.00;;;;;;5015437;28;20026;-70
2021/11/11 08:29:42;;;;;;;10.40;2.95;;;12.30;44.30;;;;;;5014291;28;20367;-70
2021/11/11 08:32:09;;;;;;;4.88;2.60;;;12.60;44.60;;;;;;5025160;28;20028;-70
2021/11/11 08:34:34;;;;;;;5.90;3.20;;;12.70;44.10;;;;;;5017951;28;20029;-72
2021/11/11 08:37:00;;;;;;;4.32;2.33;;;12.80;44.40;;;;;;5021246;28;20033;-70
2021/11/11 08:39:26;;;;;;;6.30;2.47;;;12.90;43.80;;;;;;5018337;28;20033;-70
2021/11/11 08:41:52;;;;;;;6.07;2.42;;;12.90;43.80;;;;;;5015775;28;20019;-71
2021/11/11 08:44:20;;;;;;;3.38;2.33;;;12.90;44.00;;;;;;5015305;28;20049;-70
2021/11/11 08:46:47;;;;;;;3.60;2.22;;;13.00;43.80;;;;;;5014503;28;20408;-70
2021/11/11 08:49:14;;;;;;;7.93;5.25;;;13.00;44.30;;;;;;5015455;28;20479;-70
2021/11/11 08:51:40;;;;;;;4.15;2.40;;;13.00;44.30;;;;;;5046970;28;20024;-70
2021/11/11 08:54:06;;;;;;;5.75;2.92;;;13.20;44.20;;;;;;5015537;28;20022;-71
2021/11/11 08:56:33;;;;;;;5.82;3.05;;;13.10;45.00;;;;;;5014740;28;20022;-71
2021/11/11 08:59:02;;;;;;;7.28;3.55;;;13.30;44.50;;;;;;5013478;28;20452;-71
2021/11/11 09:01:31;;;;;;;6.28;3.22;;;13.50;44.60;;;;;;5012415;28;20353;-70
2021/11/11 09:03:58;;;;;;;6.78;3.75;;;13.70;44.00;;;;;;5013547;28;20072;-69
2021/11/11 09:06:25;;;;;;;8.38;3.45;;;13.60;44.60;;;;;;5013588;28;20030;-70
2021/11/11 09:08:52;;;;;;;8.85;3.35;;;13.80;44.30;;;;;;5013149;28;20049;-70
2021/11/11 09:11:22;;;;;;;11.23;6.22;;;14.10;44.40;;;;;;5014703;28;20030;-72
2021/11/11 09:13:48;;;;;;;12.30;6.13;;;14.20;43.40;;;;;;5014641;28;20053;-72
2021/11/11 09:16:14;;;;;;;17.58;9.77;;;14.10;43.30;;;;;;5014818;28;20021;-70
2021/11/11 09:18:40;;;;;;;7.88;3.25;;;14.10;43.80;;;;;;5014274;28;20030;-71
2021/11/11 09:21:09;;;;;;;4.75;2.75;;;14.10;43.80;;;;;;5014361;28;20022;-70
2021/11/11 09:23:36;;;;;;;6.55;3.20;;;14.20;43.60;;;;;;5014520;28;20026;-71
2021/11/11 09:26:03;;;;;;;4.35;2.80;;;14.40;43.70;;;;;;5014281;28;20033;-71
2021/11/11 09:28:30;;;;;;;9.18;2.90;;;14.70;43.40;;;;;;5013211;28;20030;-71
2021/11/11 09:30:56;;;;;;;5.97;2.75;;;14.90;43.10;;;;;;5029619;28;20028;-71
2021/11/11 09:33:23;;;;;;;6.75;3.10;;;15.30;42.60;;;;;;5019962;28;20033;-71
2021/11/11 09:35:53;;;;;;;6.55;3.00;;;15.40;42.20;;;;;;5016846;28;20026;-72
2021/11/11 09:38:23;;;;;;;6.43;3.13;;;15.60;41.70;;;;;;5013005;28;20391;-70
2021/11/11 09:40:50;;;;;;;5.80;2.50;;;15.50;41.60;;;;;;5013667;28;20017;-70
2021/11/11 09:43:16;;;;;;;5.50;2.92;;;15.40;41.70;;;;;;5012588;28;20045;-70
2021/11/11 09:45:45;;;;;;;13.23;3.60;;;15.30;41.90;;;;;;5012941;28;20018;-70
2021/11/11 09:48:13;;;;;;;5.75;3.17;;;15.60;42.20;;;;;;5012775;28;20026;-69
2021/11/11 09:50:42;;;;;;;4.75;2.60;;;15.70;41.30;;;;;;5013689;28;20046;-71
2021/11/11 09:53:13;;;;;;;5.35;3.10;;;15.50;41.30;;;;;;5013826;28;20480;-71
2021/11/11 09:58:44;;;;;;;7.32;3.30;;;15.10;41.50;;;;;;5014003;28;20068;-71
2021/11/11 10:01:21;;;;;;;4.80;2.70;;;15.00;41.80;;;;;;5045809;28;20034;-71
2021/11/11 10:03:48;;;;;;;9.15;2.75;;;15.00;41.90;;;;;;5011994;28;20026;-70
2021/11/11 10:06:20;;;;;;;5.45;2.92;;;14.90;41.70;;;;;;5012809;28;20038;-71
2021/11/11 10:08:55;;;;;;;6.05;2.65;;;14.70;42.20;;;;;;5013278;28;20460;-71
2021/11/11 10:11:32;;;;;;;5.65;3.08;;;14.70;42.10;;;;;;5012279;28;20030;-71
2021/11/11 10:14:14;;;;;;;5.97;2.83;;;14.50;42.50;;;;;;5013309;28;20482;-70
2021/11/11 10:16:42;;;;;;;6.57;2.95;;;14.50;42.80;;;;;;5013567;28;20156;-71
2021/11/11 10:19:08;;;;;;;4.85;2.90;;;14.60;42.90;;;;;;5014098;28;20519;-71
2021/11/11 10:21:50;;;;;;;4.93;2.60;;;14.50;42.60;;;;;;5021001;28;20109;-70
2021/11/11 10:24:26;;;;;;;4.88;3.13;;;14.40;43.00;;;;;;5016212;28;20025;-70
2021/11/11 10:27:30;;;;;;;5.18;3.00;;;14.30;43.20;;;;;;5019023;28;20032;-69
2021/11/11 10:30:22;;;;;;;7.05;2.90;;;14.20;43.50;;;;;;5017343;28;20030;-70
2021/11/11 10:32:51;;;;;;;4.82;2.67;;;14.30;44.20;;;;;;5018666;28;20356;-72
2021/11/11 10:35:31;;;;;;;7.90;3.05;;;14.60;43.70;;;;;;5045512;28;20022;-70
2021/11/11 10:38:06;;;;;;;4.63;3.08;;;14.80;43.40;;;;;;5016358;28;20033;-70
2021/11/11 10:40:38;;;;;;;5.60;2.77;;;14.70;43.00;;;;;;5022106;28;20050;-70
2021/11/11 10:43:09;;;;;;;4.40;2.60;;;14.80;43.00;;;;;;5011520;28;20042;-71
2021/11/11 10:45:37;;;;;;;5.13;2.60;;;14.80;42.70;;;;;;5013052;28;20072;-71
2021/11/11 10:48:06;;;;;;;13.15;6.55;;;14.70;42.70;;;;;;5011785;28;20033;-71
2021/11/11 10:51:05;;;;;;;13.43;6.90;;;14.80;43.50;;;;;;5012201;28;20065;-70
2021/11/11 10:53:34;;;;;;;15.18;4.72;;;14.50;42.40;;;;;;5021558;28;20399;-70
2021/11/11 10:56:01;;;;;;;7.72;3.78;;;14.40;43.40;;;;;;5013098;28;20022;-71
2021/11/11 10:58:31;;;;;;;7.70;3.00;;;14.40;43.30;;;;;;5013461;28;20022;-71
2021/11/11 11:01:00;;;;;;;10.70;4.90;;;14.30;43.30;;;;;;5012992;28;20527;-71
2021/11/11 11:03:42;;;;;;;9.15;3.05;;;14.30;43.30;;;;;;5013686;28;20101;-69
2021/11/11 11:06:15;;;;;;;5.57;3.00;;;14.20;42.70;;;;;;5013492;28;20376;-70
2021/11/11 11:08:51;;;;;;;7.25;3.60;;;14.00;43.20;;;;;;5012906;28;20108;-70
2021/11/11 11:11:27;;;;;;;6.75;3.40;;;14.00;43.60;;;;;;5045174;28;20393;-70
2021/11/11 11:14:22;;;;;;;6.65;3.50;;;13.90;43.50;;;;;;5013096;28;20029;-70
2021/11/11 11:16:49;;;;;;;6.88;2.67;;;13.90;43.90;;;;;;5023340;28;20045;-71
2021/11/11 11:19:18;;;;;;;6.63;2.70;;;13.90;43.50;;;;;;5016124;28;20032;-70
2021/11/11 11:21:54;;;;;;;4.07;2.53;;;13.80;43.60;;;;;;5016574;28;20022;-69
2021/11/11 11:24:26;;;;;;;6.45;2.90;;;13.90;43.60;;;;;;5018192;28;20021;-71
2021/11/11 11:26:58;;;;;;;9.25;4.68;;;13.90;43.30;;;;;;5017223;28;20033;-71
2021/11/11 11:32:07;;;;;;;7.20;3.10;;;14.00;43.70;;;;;;5016816;28;20018;-70
2021/11/11 11:34:38;;;;;;;29.58;13.55;;;14.00;43.40;;;;;;5016636;28;20037;-70
2021/11/11 11:37:10;;;;;;;31.38;17.85;;;13.90;43.30;;;;;;5016672;28;20071;-71
2021/11/11 11:39:42;;;;;;;13.35;7.78;;;13.80;43.30;;;;;;5028715;28;20036;-71
2021/11/11 11:42:11;;;;;;;10.23;4.93;;;13.80;43.70;;;;;;5015252;28;20026;-70
2021/11/11 11:44:49;;;;;;;9.32;4.85;;;13.90;43.50;;;;;;5014918;28;20050;-70
2021/11/11 11:47:31;;;;;;;7.75;3.92;;;13.80;43.80;;;;;;5048015;28;20065;-69
2021/11/11 11:50:02;;;;;;;5.85;2.80;;;13.90;43.80;;;;;;5015951;28;20422;-71
2021/11/11 11:52:31;;;;;;;36.05;17.48;;;13.90;43.60;;;;;;5016396;28;20029;-70
2021/11/11 11:57:59;;;;;;;10.85;6.60;;;14.00;43.70;;;;;;5011092;28;20124;-71
2021/11/11 12:17:44;;;;;;;11.57;5.13;;;12.50;46.00;;;;;;5019778;28;20045;-72
2021/11/11 12:30:01;;;;;;;7.35;2.85;;;12.10;47.20;;;;;;5015131;28;20057;-72
2021/11/11 12:38:57;;;;;;;6.13;3.47;;;11.40;48.60;;;;;;5015385;28;20036;-70
2021/11/11 12:41:18;;;;;;;9.95;3.38;;;11.30;49.00;;;;;;5014853;28;20079;-71
2021/11/11 12:44:05;;;;;;;6.13;3.17;;;10.90;49.20;;;;;;5013932;28;20535;-73
2021/11/11 12:46:58;;;;;;;7.93;3.25;;;10.70;50.00;;;;;;5014624;28;20026;-71
2021/11/11 12:49:35;;;;;;;5.75;3.55;;;10.20;50.70;;;;;;5012822;28;20155;-70
2021/11/11 12:52:12;;;;;;;5.82;3.67;;;9.90;51.50;;;;;;5013911;28;20033;-71
2021/11/11 12:54:44;;;;;;;7.10;3.40;;;9.60;52.50;;;;;;5014823;28;20026;-71
2021/11/11 12:57:10;;;;;;;6.22;3.65;;;9.40;53.10;;;;;;5015062;28;20068;-71
2021/11/11 12:59:37;;;;;;;7.70;4.20;;;9.20;53.80;;;;;;5015213;28;20042;-71
2021/11/11 13:02:06;;;;;;;11.18;3.92;;;9.10;54.30;;;;;;5013611;28;20029;-72
2021/11/11 13:05:07;;;;;;;8.48;3.95;;;9.00;54.70;;;;;;5013741;28;20398;-70
2021/11/11 13:07:33;;;;;;;7.70;4.05;;;8.90;55.20;;;;;;5031329;28;20091;-79
2021/11/11 13:10:17;;;;;;;5.00;3.40;;;8.80;55.90;;;;;;5024429;28;20029;-77
2021/11/11 13:13:03;;;;;;;9.10;4.35;;;8.80;56.20;;;;;;5023123;28;20029;-78
2021/11/11 13:15:40;;;;;;;10.40;4.40;;;8.70;56.30;;;;;;5023248;28;20483;-78
2021/11/11 13:18:06;;;;;;;14.98;4.15;;;8.70;56.70;;;;;;5018255;28;20030;-78
2021/11/11 13:20:42;;;;;;;13.18;5.18;;;8.70;56.90;;;;;;5048036;28;20367;-78
2021/11/11 13:23:41;;;;;;;6.60;3.35;;;8.60;57.20;;;;;;5015108;28;20026;-79
2021/11/11 16:27:27;;;;;;;8.95;5.10;;;6.60;69.30;;;;;;5016065;28;20033;-77
2021/11/11 16:30:02;;;;;;;10.73;5.72;;;6.60;69.30;;;;;;5015352;28;20438;-77
2021/11/11 16:32:28;;;;;;;11.80;5.47;;;6.60;69.40;;;;;;5015234;28;20037;-78
2021/11/11 16:34:53;;;;;;;10.15;5.55;;;6.60;69.40;;;;;;5015554;28;20018;-77
2021/11/11 16:37:19;;;;;;;8.23;5.32;;;6.60;69.50;;;;;;5014735;28;20102;-78
2021/11/11 16:39:50;;;;;;;12.57;5.55;;;6.60;69.50;;;;;;5014762;28;20014;-78
2021/11/11 16:42:16;;;;;;;9.98;5.55;;;6.60;69.40;;;;;;5014717;28;20116;-76
2021/11/11 16:44:42;;;;;;;10.52;5.70;;;6.60;69.40;;;;;;5013705;28;20121;-78
2021/11/11 16:47:09;;;;;;;10.32;5.63;;;6.60;69.50;;;;;;5022752;28;20117;-77
2021/11/11 16:49:36;;;;;;;11.93;5.47;;;6.60;69.70;;;;;;5022881;28;20025;-78
2021/11/11 16:52:04;;;;;;;8.70;5.35;;;6.60;69.70;;;;;;5024551;28;20109;-79
2021/11/11 16:54:30;;;;;;;10.30;5.50;;;6.50;69.80;;;;;;5029644;28;20056;-77
2021/11/11 16:57:01;;;;;;;10.30;5.80;;;6.50;69.80;;;;;;5024332;28;20112;-78
2021/11/11 16:59:27;;;;;;;11.10;5.80;;;6.50;70.00;;;;;;5016225;28;20211;-77
2021/11/11 17:01:53;;;;;;;8.73;5.32;;;6.50;70.00;;;;;;5017614;28;20349;-78
2021/11/11 17:04:18;;;;;;;9.95;5.90;;;6.40;70.00;;;;;;5013908;28;20037;-78